createdAt,value
2018-04-23T00:00:25.448Z,0
2018-04-23T00:01:05.969Z,0
2018-04-23T00:01:46.486Z,0
2018-04-23T00:02:27.000Z,0
2018-04-23T00:03:07.515Z,0
2018-04-23T00:03:48.046Z,0
2018-04-23T00:04:28.578Z,0
2018-04-23T00:05:09.083Z,0
2018-04-23T00:05:49.595Z,0
2018-04-23T00:06:30.116Z,0
2018-04-23T00:07:10.629Z,0
2018-04-23T00:07:51.152Z,0
2018-04-23T00:08:31.682Z,0
2018-04-23T00:09:12.187Z,0
2018-04-23T00:09:52.721Z,0
2018-04-23T00:10:33.246Z,0
2018-04-23T00:11:13.795Z,0
2018-04-23T00:11:54.335Z,0
2018-04-23T00:12:34.845Z,0
2018-04-23T00:13:15.366Z,0
2018-04-23T00:13:55.878Z,0
2018-04-23T00:14:36.384Z,0
2018-04-23T00:15:16.912Z,0
2018-04-23T00:15:57.459Z,0
2018-04-23T00:16:37.961Z,0
2018-04-23T00:17:18.481Z,0
2018-04-23T00:17:59.005Z,0
2018-04-23T00:18:39.537Z,0
2018-04-23T00:19:20.095Z,0
2018-04-23T00:20:00.618Z,0
2018-04-23T00:20:41.135Z,0
2018-04-23T00:21:21.658Z,0
2018-04-23T00:22:02.203Z,0
2018-04-23T00:22:42.718Z,0
2018-04-23T00:23:23.242Z,0
2018-04-23T00:24:03.793Z,0
2018-04-23T00:24:44.315Z,0
2018-04-23T00:25:24.828Z,0
2018-04-23T00:26:05.337Z,0
2018-04-23T00:26:45.876Z,0
2018-04-23T00:27:26.411Z,0
2018-04-23T00:28:06.929Z,0
2018-04-23T00:28:47.436Z,0
2018-04-23T00:29:27.955Z,0
2018-04-23T00:30:08.483Z,0
2018-04-23T00:30:48.999Z,0
2018-04-23T00:31:29.528Z,0
2018-04-23T00:32:10.046Z,0
2018-04-23T00:32:50.574Z,0
2018-04-23T00:33:31.067Z,0
2018-04-23T00:34:11.592Z,0
2018-04-23T00:34:52.136Z,0
2018-04-23T00:35:32.627Z,0
2018-04-23T00:36:13.156Z,0
2018-04-23T00:36:53.673Z,0
2018-04-23T00:37:34.198Z,0
2018-04-23T00:38:14.712Z,0
2018-04-23T00:38:55.231Z,0
2018-04-23T00:39:35.750Z,0
2018-04-23T00:40:16.269Z,0
2018-04-23T00:40:56.771Z,0
2018-04-23T00:41:37.281Z,0
2018-04-23T00:42:17.824Z,0
2018-04-23T00:42:58.345Z,0
2018-04-23T00:43:38.876Z,0
2018-04-23T00:44:19.401Z,0
2018-04-23T00:44:59.929Z,0
2018-04-23T00:45:40.442Z,0
2018-04-23T00:46:20.972Z,0
2018-04-23T00:47:01.480Z,0
2018-04-23T00:47:41.996Z,0
2018-04-23T00:48:22.524Z,0
2018-04-23T00:49:03.034Z,0
2018-04-23T00:49:43.556Z,0
2018-04-23T00:50:24.082Z,0
2018-04-23T00:51:04.588Z,0
2018-04-23T00:51:45.145Z,0
2018-04-23T00:52:25.662Z,0
2018-04-23T00:53:06.180Z,0
2018-04-23T00:53:46.707Z,0
2018-04-23T00:54:27.228Z,0
2018-04-23T00:55:07.752Z,0
2018-04-23T00:55:48.276Z,0
2018-04-23T00:56:28.839Z,0
2018-04-23T00:57:09.330Z,0
2018-04-23T00:57:49.845Z,0
2018-04-23T00:58:30.370Z,0
2018-04-23T00:59:10.909Z,0
2018-04-23T00:59:51.418Z,0
2018-04-23T01:00:31.955Z,0
2018-04-23T01:01:12.476Z,0
2018-04-23T01:01:52.983Z,0
2018-04-23T01:02:33.510Z,0
2018-04-23T01:03:14.028Z,0
2018-04-23T01:03:54.545Z,0
2018-04-23T01:04:35.041Z,0
2018-04-23T01:05:15.573Z,0
2018-04-23T01:05:56.090Z,0
2018-04-23T01:06:36.601Z,0
2018-04-23T01:07:17.116Z,0
2018-04-23T01:07:57.634Z,0
2018-04-23T01:08:38.140Z,0
2018-04-23T01:09:18.676Z,0
2018-04-23T01:09:59.185Z,0
2018-04-23T01:10:39.708Z,0
2018-04-23T01:11:20.240Z,0
2018-04-23T01:12:00.755Z,0
2018-04-23T01:12:41.324Z,0
2018-04-23T01:13:21.825Z,0
2018-04-23T01:14:02.351Z,0
2018-04-23T01:14:42.870Z,0
2018-04-23T01:15:23.383Z,0
2018-04-23T01:16:03.899Z,0
2018-04-23T01:16:44.426Z,0
2018-04-23T01:17:24.941Z,0
2018-04-23T01:18:05.471Z,0
2018-04-23T01:18:45.990Z,0
2018-04-23T01:19:26.504Z,0
2018-04-23T01:20:07.016Z,0
2018-04-23T01:20:47.544Z,0
2018-04-23T01:21:28.072Z,0
2018-04-23T01:22:08.586Z,0
2018-04-23T01:22:49.123Z,0
2018-04-23T01:23:29.642Z,0
2018-04-23T01:24:10.275Z,0
2018-04-23T01:24:50.793Z,0
2018-04-23T01:25:31.327Z,0
2018-04-23T01:26:11.847Z,0
2018-04-23T01:26:52.365Z,0
2018-04-23T01:27:32.882Z,0
2018-04-23T01:28:13.403Z,0
2018-04-23T01:28:53.917Z,0
2018-04-23T01:29:34.444Z,0
2018-04-23T01:30:14.980Z,0
2018-04-23T01:30:55.486Z,0
2018-04-23T01:31:35.993Z,0
2018-04-23T01:32:16.513Z,0
2018-04-23T01:32:57.027Z,0
2018-04-23T01:33:37.544Z,0
2018-04-23T01:34:18.077Z,0
2018-04-23T01:34:58.593Z,0
2018-04-23T01:35:39.111Z,0
2018-04-23T01:36:19.636Z,0
2018-04-23T01:37:00.159Z,0
2018-04-23T01:37:40.677Z,0
2018-04-23T01:38:21.191Z,0
2018-04-23T01:39:01.817Z,0
2018-04-23T01:39:42.324Z,0
2018-04-23T01:40:22.862Z,0
2018-04-23T01:41:03.391Z,0
2018-04-23T01:41:43.904Z,0
2018-04-23T01:42:24.434Z,0
2018-04-23T01:43:04.956Z,0
2018-04-23T01:43:45.471Z,0
2018-04-23T01:44:25.983Z,0
2018-04-23T01:45:06.502Z,0
2018-04-23T01:45:47.027Z,0
2018-04-23T01:46:27.545Z,0
2018-04-23T01:47:08.059Z,0
2018-04-23T01:47:48.577Z,0
2018-04-23T01:48:29.078Z,0
2018-04-23T01:49:09.601Z,0
2018-04-23T01:49:50.124Z,0
2018-04-23T01:50:30.644Z,0
2018-04-23T01:51:11.167Z,0
2018-04-23T01:51:51.685Z,0
2018-04-23T01:52:32.210Z,0
2018-04-23T01:53:12.726Z,0
2018-04-23T01:53:53.254Z,0
2018-04-23T01:54:33.794Z,0
2018-04-23T01:55:14.320Z,0
2018-04-23T01:55:54.829Z,0
2018-04-23T01:56:35.344Z,0
2018-04-23T01:57:15.848Z,0
2018-04-23T01:57:56.380Z,0
2018-04-23T01:58:36.888Z,0
2018-04-23T01:59:17.466Z,0
2018-04-23T01:59:57.940Z,0
2018-04-23T02:00:38.467Z,0
2018-04-23T02:01:18.999Z,0
2018-04-23T02:01:59.510Z,0
2018-04-23T02:02:40.038Z,0
2018-04-23T02:03:20.567Z,0
2018-04-23T02:04:01.075Z,0
2018-04-23T02:04:41.599Z,0
2018-04-23T02:05:22.111Z,0
2018-04-23T02:06:02.620Z,0
2018-04-23T02:06:43.131Z,0
2018-04-23T02:07:23.673Z,0
2018-04-23T02:08:04.188Z,0
2018-04-23T02:08:44.691Z,0
2018-04-23T02:09:25.231Z,0
2018-04-23T02:10:05.713Z,0
2018-04-23T02:10:46.232Z,0
2018-04-23T02:11:26.961Z,0
2018-04-23T02:12:07.285Z,0
2018-04-23T02:12:47.797Z,0
2018-04-23T02:13:28.308Z,0
2018-04-23T02:14:08.843Z,0
2018-04-23T02:14:49.357Z,0
2018-04-23T02:15:29.873Z,0
2018-04-23T02:16:10.392Z,0
2018-04-23T02:16:50.903Z,0
2018-04-23T02:17:31.436Z,0
2018-04-23T02:18:11.956Z,0
2018-04-23T02:18:52.481Z,0
2018-04-23T02:19:33.009Z,0
2018-04-23T02:20:13.550Z,0
2018-04-23T02:20:54.061Z,0
2018-04-23T02:21:34.581Z,0
2018-04-23T02:22:15.099Z,0
2018-04-23T02:22:55.648Z,0
2018-04-23T02:23:36.131Z,0
2018-04-23T02:24:16.666Z,0
2018-04-23T02:24:57.193Z,0
2018-04-23T02:25:37.695Z,0
2018-04-23T02:26:18.203Z,0
2018-04-23T02:26:58.717Z,0
2018-04-23T02:27:39.242Z,0
2018-04-23T02:28:19.768Z,0
2018-04-23T02:29:00.280Z,0
2018-04-23T02:29:40.811Z,0
2018-04-23T02:30:21.324Z,0
2018-04-23T02:31:01.847Z,0
2018-04-23T02:31:42.366Z,0
2018-04-23T02:32:22.953Z,0
2018-04-23T02:33:03.465Z,0
2018-04-23T02:33:43.983Z,0
2018-04-23T02:34:24.502Z,0
2018-04-23T02:35:05.039Z,0
2018-04-23T02:35:45.550Z,0
2018-04-23T02:36:26.060Z,0
2018-04-23T02:37:06.585Z,0
2018-04-23T02:37:47.111Z,0
2018-04-23T02:38:27.636Z,0
2018-04-23T02:39:08.163Z,0
2018-04-23T02:39:48.677Z,0
2018-04-23T02:40:29.195Z,0
2018-04-23T02:41:09.711Z,0
2018-04-23T02:41:50.240Z,0
2018-04-23T02:42:30.764Z,0
2018-04-23T02:43:11.271Z,0
2018-04-23T02:43:51.781Z,0
2018-04-23T02:44:32.290Z,0
2018-04-23T02:45:12.808Z,0
2018-04-23T02:45:53.331Z,0
2018-04-23T02:46:33.846Z,0
2018-04-23T02:47:14.357Z,0
2018-04-23T02:47:54.880Z,0
2018-04-23T02:48:35.414Z,0
2018-04-23T02:49:15.933Z,0
2018-04-23T02:49:56.453Z,0
2018-04-23T02:50:36.968Z,0
2018-04-23T02:51:17.482Z,0
2018-04-23T02:51:58.009Z,0
2018-04-23T02:52:38.549Z,0
2018-04-23T02:53:19.067Z,0
2018-04-23T02:53:59.619Z,0
2018-04-23T02:54:40.143Z,0
2018-04-23T02:55:20.659Z,0
2018-04-23T02:56:01.188Z,0
2018-04-23T02:56:41.712Z,0
2018-04-23T02:57:22.206Z,0
2018-04-23T02:58:02.734Z,0
2018-04-23T02:58:43.268Z,0
2018-04-23T02:59:23.760Z,0
2018-04-23T03:00:04.269Z,0
2018-04-23T03:00:44.768Z,0
2018-04-23T03:01:25.284Z,0
2018-04-23T03:02:05.824Z,0
2018-04-23T03:02:46.327Z,0
2018-04-23T03:03:26.857Z,0
2018-04-23T03:04:07.374Z,0
2018-04-23T03:04:47.904Z,0
2018-04-23T03:05:28.405Z,0
2018-04-23T03:06:08.928Z,0
2018-04-23T03:06:49.447Z,0
2018-04-23T03:07:29.985Z,0
2018-04-23T03:08:10.498Z,0
2018-04-23T03:08:51.019Z,0
2018-04-23T03:09:31.545Z,0
2018-04-23T03:10:12.050Z,0
2018-04-23T03:10:52.572Z,0
2018-04-23T03:11:33.108Z,0
2018-04-23T03:12:13.634Z,0
2018-04-23T03:12:54.141Z,0
2018-04-23T03:13:34.672Z,0
2018-04-23T03:14:15.187Z,0
2018-04-23T03:14:55.711Z,0
2018-04-23T03:15:36.224Z,0
2018-04-23T03:16:16.753Z,0
2018-04-23T03:16:57.278Z,0
2018-04-23T03:17:37.793Z,0
2018-04-23T03:18:18.325Z,0
2018-04-23T03:18:58.836Z,0
2018-04-23T03:19:39.355Z,0
2018-04-23T03:20:19.876Z,0
2018-04-23T03:21:00.382Z,0
2018-04-23T03:21:40.895Z,0
2018-04-23T03:22:21.388Z,0
2018-04-23T03:23:01.923Z,0
2018-04-23T03:23:42.441Z,0
2018-04-23T03:24:22.952Z,0
2018-04-23T03:25:03.490Z,0
2018-04-23T03:25:44.005Z,0
2018-04-23T03:26:24.527Z,0
2018-04-23T03:27:05.059Z,0
2018-04-23T03:27:45.562Z,0
2018-04-23T03:28:26.087Z,0
2018-04-23T03:29:06.631Z,0
2018-04-23T03:29:47.156Z,0
2018-04-23T03:30:27.672Z,0
2018-04-23T03:31:08.195Z,0
2018-04-23T03:31:48.792Z,0
2018-04-23T03:32:29.303Z,0
2018-04-23T03:33:09.831Z,0
2018-04-23T03:33:50.349Z,0
2018-04-23T03:34:30.875Z,0
2018-04-23T03:35:11.391Z,0
2018-04-23T03:35:51.925Z,0
2018-04-23T03:36:32.436Z,0
2018-04-23T03:37:12.974Z,0
2018-04-23T03:37:53.468Z,0
2018-04-23T03:38:33.996Z,0
2018-04-23T03:39:14.509Z,0
2018-04-23T03:39:55.028Z,0
2018-04-23T03:40:35.550Z,0
2018-04-23T03:41:16.078Z,0
2018-04-23T03:41:56.589Z,0
2018-04-23T03:42:37.102Z,0
2018-04-23T03:43:17.641Z,0
2018-04-23T03:43:58.158Z,0
2018-04-23T03:44:38.666Z,0
2018-04-23T03:45:19.193Z,0
2018-04-23T03:45:59.711Z,0
2018-04-23T03:46:40.244Z,0
2018-04-23T03:47:20.781Z,0
2018-04-23T03:48:01.300Z,0
2018-04-23T03:48:41.808Z,0
2018-04-23T03:49:22.320Z,0
2018-04-23T03:50:02.832Z,0
2018-04-23T03:50:43.360Z,0
2018-04-23T03:51:23.881Z,0
2018-04-23T03:52:04.405Z,0
2018-04-23T03:52:44.926Z,0
2018-04-23T03:53:25.449Z,0
2018-04-23T03:54:05.984Z,0
2018-04-23T03:54:46.495Z,0
2018-04-23T03:55:27.050Z,0
2018-04-23T03:56:07.576Z,0
2018-04-23T03:56:48.102Z,0
2018-04-23T03:57:28.640Z,0
2018-04-23T03:58:09.164Z,0
2018-04-23T03:58:49.682Z,0
2018-04-23T03:59:30.204Z,0
2018-04-23T04:00:10.726Z,0
2018-04-23T04:00:51.275Z,0
2018-04-23T04:01:31.784Z,0
2018-04-23T04:02:12.312Z,0
2018-04-23T04:02:52.837Z,0
2018-04-23T04:03:33.356Z,0
2018-04-23T04:04:13.888Z,0
2018-04-23T04:04:54.416Z,0
2018-04-23T04:05:34.941Z,0
2018-04-23T04:06:15.456Z,0
2018-04-23T04:06:55.974Z,0
2018-04-23T04:07:36.497Z,0
2018-04-23T04:08:17.027Z,0
2018-04-23T04:08:57.558Z,0
2018-04-23T04:09:38.073Z,0
2018-04-23T04:10:18.608Z,0
2018-04-23T04:10:59.126Z,0
2018-04-23T04:11:39.652Z,0
2018-04-23T04:12:20.170Z,0
2018-04-23T04:13:00.690Z,0
2018-04-23T04:13:41.207Z,0
2018-04-23T04:14:21.725Z,0
2018-04-23T04:15:02.261Z,0
2018-04-23T04:15:42.768Z,0
2018-04-23T04:16:23.279Z,0
2018-04-23T04:17:03.809Z,0
2018-04-23T04:17:44.327Z,0
2018-04-23T04:18:24.851Z,0
2018-04-23T04:19:05.374Z,0
2018-04-23T04:19:45.876Z,0
2018-04-23T04:20:26.419Z,0
2018-04-23T04:21:06.926Z,0
2018-04-23T04:21:47.446Z,0
2018-04-23T04:22:27.955Z,0
2018-04-23T04:23:08.474Z,0
2018-04-23T04:23:48.995Z,5
2018-04-23T04:24:29.512Z,5
2018-04-23T04:25:10.031Z,5
2018-04-23T04:25:50.551Z,5
2018-04-23T04:26:31.080Z,5
2018-04-23T04:27:11.585Z,5
2018-04-23T04:27:52.100Z,5
2018-04-23T04:28:32.653Z,5
2018-04-23T04:29:13.176Z,10
2018-04-23T04:29:53.696Z,10
2018-04-23T04:30:34.214Z,10
2018-04-23T04:31:14.727Z,10
2018-04-23T04:31:55.251Z,10
2018-04-23T04:32:35.763Z,15
2018-04-23T04:33:16.275Z,15
2018-04-23T04:33:56.779Z,15
2018-04-23T04:34:37.314Z,15
2018-04-23T04:35:17.834Z,20
2018-04-23T04:35:58.353Z,20
2018-04-23T04:36:38.934Z,20
2018-04-23T04:37:19.434Z,20
2018-04-23T04:37:59.964Z,20
2018-04-23T04:38:40.486Z,25
2018-04-23T04:39:21.008Z,25
2018-04-23T04:40:01.535Z,25
2018-04-23T04:40:42.074Z,25
2018-04-23T04:41:22.591Z,30
2018-04-23T04:42:03.113Z,30
2018-04-23T04:42:43.633Z,30
2018-04-23T04:43:24.146Z,35
2018-04-23T04:44:04.661Z,35
2018-04-23T04:44:45.181Z,35
2018-04-23T04:45:25.714Z,35
2018-04-23T04:46:06.233Z,35
2018-04-23T04:46:46.736Z,35
2018-04-23T04:47:27.277Z,40
2018-04-23T04:48:07.795Z,40
2018-04-23T04:48:48.308Z,40
2018-04-23T04:49:28.832Z,45
2018-04-23T04:50:09.356Z,45
2018-04-23T04:50:49.868Z,45
2018-04-23T04:51:30.385Z,50
2018-04-23T04:52:10.924Z,50
2018-04-23T04:52:51.446Z,50
2018-04-23T04:53:31.982Z,55
2018-04-23T04:54:12.533Z,55
2018-04-23T04:54:53.047Z,55
2018-04-23T04:55:33.566Z,60
2018-04-23T04:56:14.090Z,60
2018-04-23T04:56:54.612Z,60
2018-04-23T04:57:35.139Z,65
2018-04-23T04:58:15.657Z,65
2018-04-23T04:58:56.188Z,65
2018-04-23T04:59:36.706Z,70
2018-04-23T05:00:17.224Z,65
2018-04-23T05:00:57.755Z,65
2018-04-23T05:01:38.304Z,65
2018-04-23T05:02:18.813Z,65
2018-04-23T05:02:59.307Z,65
2018-04-23T05:03:39.812Z,65
2018-04-23T05:04:20.333Z,65
2018-04-23T05:05:00.865Z,65
2018-04-23T05:05:41.389Z,60
2018-04-23T05:06:21.905Z,60
2018-04-23T05:07:02.445Z,60
2018-04-23T05:07:42.984Z,60
2018-04-23T05:08:23.454Z,65
2018-04-23T05:09:03.905Z,65
2018-04-23T05:09:44.421Z,65
2018-04-23T05:10:24.944Z,65
2018-04-23T05:11:05.460Z,65
2018-04-23T05:11:46.026Z,70
2018-04-23T05:12:26.483Z,70
2018-04-23T05:13:07.013Z,70
2018-04-23T05:13:47.528Z,70
2018-04-23T05:14:28.050Z,75
2018-04-23T05:15:08.592Z,75
2018-04-23T05:15:49.114Z,80
2018-04-23T05:16:29.601Z,80
2018-04-23T05:17:10.130Z,80
2018-04-23T05:17:50.657Z,85
2018-04-23T05:18:31.161Z,90
2018-04-23T05:19:11.673Z,95
2018-04-23T05:19:52.198Z,100
2018-04-23T05:20:32.726Z,100
2018-04-23T05:21:13.257Z,105
2018-04-23T05:21:53.778Z,110
2018-04-23T05:22:34.297Z,115
2018-04-23T05:23:14.815Z,115
2018-04-23T05:23:55.348Z,115
2018-04-23T05:24:35.879Z,120
2018-04-23T05:25:16.416Z,120
2018-04-23T05:25:56.944Z,120
2018-04-23T05:26:37.475Z,120
2018-04-23T05:27:18.003Z,120
2018-04-23T05:27:58.556Z,120
2018-04-23T05:28:39.129Z,120
2018-04-23T05:29:19.648Z,125
2018-04-23T05:30:00.170Z,125
2018-04-23T05:30:40.684Z,125
2018-04-23T05:31:21.206Z,125
2018-04-23T05:32:01.732Z,125
2018-04-23T05:32:42.257Z,125
2018-04-23T05:33:22.788Z,125
2018-04-23T05:34:03.295Z,120
2018-04-23T05:34:43.834Z,120
2018-04-23T05:35:24.344Z,115
2018-04-23T05:36:04.863Z,105
2018-04-23T05:36:45.392Z,95
2018-04-23T05:37:25.904Z,85
2018-04-23T05:38:06.444Z,75
2018-04-23T05:40:45.122Z,50
2018-04-23T05:41:25.647Z,45
2018-04-23T05:42:06.164Z,45
2018-04-23T05:42:46.699Z,45
2018-04-23T05:43:27.213Z,50
2018-04-23T05:44:07.772Z,50
2018-04-23T05:44:48.268Z,50
2018-04-23T05:45:28.816Z,55
2018-04-23T05:46:09.328Z,55
2018-04-23T05:46:49.854Z,55
2018-04-23T05:47:30.360Z,60
2018-04-23T05:48:10.870Z,65
2018-04-23T05:48:51.386Z,65
2018-04-23T05:49:31.914Z,65
2018-04-23T05:50:12.433Z,65
2018-04-23T05:50:52.936Z,65
2018-04-23T05:51:33.488Z,65
2018-04-23T05:52:14.051Z,60
2018-04-23T05:52:54.592Z,60
2018-04-23T05:53:35.115Z,60
2018-04-23T05:54:15.647Z,60
2018-04-23T05:54:56.238Z,65
2018-04-23T05:55:36.675Z,70
2018-04-23T05:56:17.194Z,75
2018-04-23T05:56:57.715Z,85
2018-04-23T05:57:38.226Z,95
2018-04-23T05:58:18.805Z,100
2018-04-23T05:58:59.324Z,100
2018-04-23T05:59:39.852Z,105
2018-04-23T06:00:20.356Z,105
2018-04-23T06:01:00.880Z,110
2018-04-23T06:01:41.412Z,115
2018-04-23T06:02:21.945Z,120
2018-04-23T06:03:02.463Z,125
2018-04-23T06:03:42.963Z,125
2018-04-23T06:04:23.471Z,130
2018-04-23T06:05:03.995Z,135
2018-04-23T06:05:44.505Z,140
2018-04-23T06:06:25.022Z,140
2018-04-23T06:07:05.535Z,145
2018-04-23T06:07:46.064Z,145
2018-04-23T06:08:26.580Z,150
2018-04-23T06:09:07.112Z,155
2018-04-23T06:09:47.630Z,155
2018-04-23T06:10:28.137Z,160
2018-04-23T06:11:08.669Z,160
2018-04-23T06:11:49.185Z,165
2018-04-23T06:12:29.715Z,170
2018-04-23T06:13:10.234Z,170
2018-04-23T06:13:50.763Z,175
2018-04-23T06:14:31.304Z,175
2018-04-23T06:15:11.839Z,180
2018-04-23T06:15:52.383Z,180
2018-04-23T06:16:32.913Z,180
2018-04-23T06:17:13.426Z,185
2018-04-23T06:17:53.948Z,185
2018-04-23T06:18:34.576Z,185
2018-04-23T06:19:15.087Z,185
2018-04-23T06:19:55.606Z,190
2018-04-23T06:20:36.152Z,190
2018-04-23T06:21:16.730Z,190
2018-04-23T06:21:57.294Z,185
2018-04-23T06:22:37.825Z,180
2018-04-23T06:23:18.337Z,175
2018-04-23T06:23:58.890Z,165
2018-04-23T06:24:39.450Z,150
2018-04-23T06:25:19.994Z,140
2018-04-23T06:26:00.496Z,140
2018-04-23T06:26:41.016Z,130
2018-04-23T06:27:21.528Z,110
2018-04-23T06:28:02.048Z,95
2018-04-23T06:28:42.577Z,70
2018-04-23T06:29:23.085Z,60
2018-04-23T06:30:03.616Z,55
2018-04-23T06:30:44.139Z,55
2018-04-23T06:31:24.654Z,55
2018-04-23T06:32:05.162Z,55
2018-04-23T06:32:45.692Z,50
2018-04-23T06:33:26.229Z,50
2018-04-23T06:34:06.753Z,50
2018-04-23T06:34:47.294Z,45
2018-04-23T06:35:27.796Z,40
2018-04-23T06:36:08.315Z,35
2018-04-23T06:36:48.833Z,30
2018-04-23T06:37:29.361Z,25
2018-04-23T06:38:09.868Z,25
2018-04-23T06:38:50.389Z,25
2018-04-23T06:39:30.909Z,25
2018-04-23T06:40:11.428Z,25
2018-04-23T06:40:51.950Z,25
2018-04-23T06:41:32.495Z,25
2018-04-23T06:42:13.035Z,25
2018-04-23T06:42:53.560Z,25
2018-04-23T06:43:34.079Z,25
2018-04-23T06:44:14.597Z,25
2018-04-23T06:44:55.089Z,25
2018-04-23T06:45:35.620Z,30
2018-04-23T06:46:16.143Z,30
2018-04-23T06:46:56.657Z,30
2018-04-23T06:47:37.180Z,35
2018-04-23T06:48:17.695Z,35
2018-04-23T06:48:58.218Z,35
2018-04-23T06:49:38.713Z,30
2018-04-23T06:50:19.260Z,30
2018-04-23T06:50:59.848Z,25
2018-04-23T06:51:40.285Z,20
2018-04-23T06:52:20.797Z,15
2018-04-23T06:53:01.311Z,15
2018-04-23T06:53:41.826Z,10
2018-04-23T06:54:22.367Z,5
2018-04-23T06:55:02.919Z,5
2018-04-23T06:55:43.452Z,5
2018-04-23T06:56:23.977Z,5
2018-04-23T06:57:04.504Z,5
2018-04-23T06:57:45.025Z,5
2018-04-23T06:58:25.529Z,5
2018-04-23T06:59:06.071Z,5
2018-04-23T06:59:47.481Z,5
2018-04-23T07:00:28.019Z,5
2018-04-23T07:01:08.559Z,5
2018-04-23T07:01:49.085Z,5
2018-04-23T07:02:29.599Z,5
2018-04-23T07:03:10.117Z,5
2018-04-23T07:03:50.630Z,5
2018-04-23T07:04:31.129Z,5
2018-04-23T07:05:11.736Z,5
2018-04-23T07:05:52.203Z,5
2018-04-23T07:06:32.729Z,5
2018-04-23T07:07:13.254Z,5
2018-04-23T07:07:53.767Z,5
2018-04-23T07:08:34.294Z,5
2018-04-23T07:09:14.801Z,5
2018-04-23T07:09:55.333Z,5
2018-04-23T07:10:35.861Z,5
2018-04-23T07:11:16.393Z,5
2018-04-23T07:11:56.931Z,5
2018-04-23T07:12:37.437Z,5
2018-04-23T07:13:17.957Z,5
2018-04-23T07:13:58.469Z,5
2018-04-23T07:14:38.984Z,5
2018-04-23T07:15:19.495Z,5
2018-04-23T07:16:00.013Z,5
2018-04-23T07:16:40.586Z,5
2018-04-23T07:17:21.058Z,10
2018-04-23T07:18:01.575Z,10
2018-04-23T07:18:42.086Z,10
2018-04-23T07:19:22.587Z,10
2018-04-23T07:20:03.104Z,10
2018-04-23T07:20:43.633Z,10
2018-04-23T07:21:24.161Z,5
2018-04-23T07:22:04.720Z,5
2018-04-23T07:22:45.210Z,5
2018-04-23T07:23:25.721Z,5
2018-04-23T07:24:06.279Z,10
2018-04-23T07:24:46.783Z,10
2018-04-23T07:25:27.310Z,10
2018-04-23T07:26:07.845Z,10
2018-04-23T07:26:48.369Z,15
2018-04-23T07:27:28.879Z,15
2018-04-23T07:28:09.416Z,15
2018-04-23T07:28:49.936Z,20
2018-04-23T07:29:30.450Z,20
2018-04-23T07:30:10.972Z,25
2018-04-23T07:30:51.493Z,25
2018-04-23T07:31:32.006Z,25
2018-04-23T07:32:12.533Z,30
2018-04-23T07:32:53.057Z,30
2018-04-23T07:33:33.580Z,30
2018-04-23T07:34:14.124Z,35
2018-04-23T07:34:54.658Z,35
2018-04-23T07:35:35.179Z,35
2018-04-23T07:36:15.698Z,35
2018-04-23T07:36:56.245Z,35
2018-04-23T07:37:36.765Z,40
2018-04-23T07:38:17.299Z,40
2018-04-23T07:38:57.817Z,45
2018-04-23T07:39:38.337Z,45
2018-04-23T07:40:18.862Z,50
2018-04-23T07:40:59.401Z,55
2018-04-23T07:41:39.911Z,60
2018-04-23T07:42:20.435Z,60
2018-04-23T07:43:00.951Z,65
2018-04-23T07:43:41.492Z,65
2018-04-23T07:44:22.007Z,65
2018-04-23T07:45:02.527Z,60
2018-04-23T07:45:43.053Z,60
2018-04-23T07:46:23.563Z,60
2018-04-23T07:47:04.073Z,60
2018-04-23T07:47:44.622Z,60
2018-04-23T07:48:25.137Z,60
2018-04-23T07:49:05.664Z,55
2018-04-23T07:49:46.178Z,60
2018-04-23T07:50:26.806Z,60
2018-04-23T07:51:07.417Z,60
2018-04-23T07:51:47.954Z,60
2018-04-23T07:52:28.463Z,60
2018-04-23T07:53:08.979Z,60
2018-04-23T07:53:49.493Z,60
2018-04-23T07:54:30.008Z,60
2018-04-23T07:55:10.537Z,60
2018-04-23T07:55:51.058Z,60
2018-04-23T07:56:31.572Z,60
2018-04-23T07:57:12.103Z,65
2018-04-23T07:57:52.609Z,65
2018-04-23T07:58:33.712Z,70
2018-04-23T07:59:14.230Z,70
2018-04-23T07:59:54.800Z,70
2018-04-23T08:00:35.296Z,75
2018-04-23T08:01:15.815Z,75
2018-04-23T08:01:56.320Z,75
2018-04-23T08:02:36.834Z,80
2018-04-23T08:03:17.351Z,80
2018-04-23T08:03:57.882Z,80
2018-04-23T08:04:38.421Z,80
2018-04-23T08:05:18.984Z,80
2018-04-23T08:05:59.463Z,80
2018-04-23T08:06:39.999Z,85
2018-04-23T08:07:20.560Z,85
2018-04-23T08:08:01.042Z,85
2018-04-23T08:08:41.559Z,85
2018-04-23T08:09:22.085Z,85
2018-04-23T08:10:02.596Z,80
2018-04-23T08:10:43.114Z,80
2018-04-23T08:11:23.643Z,80
2018-04-23T08:12:04.159Z,80
2018-04-23T08:12:44.671Z,80
2018-04-23T08:13:25.192Z,85
2018-04-23T08:14:05.709Z,85
2018-04-23T08:14:46.218Z,90
2018-04-23T08:15:26.742Z,90
2018-04-23T08:16:07.266Z,90
2018-04-23T08:16:47.791Z,90
2018-04-23T08:17:28.300Z,85
2018-04-23T08:18:08.835Z,80
2018-04-23T08:18:49.422Z,75
2018-04-23T08:19:29.901Z,70
2018-04-23T08:20:10.426Z,70
2018-04-23T08:20:50.934Z,65
2018-04-23T08:21:31.485Z,65
2018-04-23T08:22:12.013Z,65
2018-04-23T08:22:52.522Z,65
2018-04-23T08:23:33.053Z,65
2018-04-23T08:24:13.577Z,70
2018-04-23T08:24:54.086Z,75
2018-04-23T08:25:34.615Z,75
2018-04-23T08:26:15.127Z,80
2018-04-23T08:26:55.650Z,80
2018-04-23T08:27:36.173Z,80
2018-04-23T08:28:16.688Z,85
2018-04-23T08:28:57.206Z,85
2018-04-23T08:29:37.722Z,85
2018-04-23T08:30:18.244Z,85
2018-04-23T08:30:58.761Z,85
2018-04-23T08:31:39.274Z,85
2018-04-23T08:32:19.796Z,90
2018-04-23T08:33:00.325Z,85
2018-04-23T08:33:40.856Z,85
2018-04-23T08:34:21.379Z,85
2018-04-23T08:35:01.915Z,90
2018-04-23T08:35:42.447Z,90
2018-04-23T08:36:22.972Z,90
2018-04-23T08:37:03.502Z,90
2018-04-23T08:37:44.003Z,90
2018-04-23T08:38:24.542Z,90
2018-04-23T08:39:05.074Z,90
2018-04-23T08:39:45.589Z,90
2018-04-23T08:40:26.126Z,90
2018-04-23T08:41:06.642Z,95
2018-04-23T08:41:47.153Z,100
2018-04-23T08:42:27.690Z,100
2018-04-23T08:43:08.206Z,105
2018-04-23T08:43:48.775Z,110
2018-04-23T08:44:29.248Z,110
2018-04-23T08:45:09.778Z,115
2018-04-23T08:45:50.293Z,115
2018-04-23T08:46:30.801Z,115
2018-04-23T08:47:11.313Z,115
2018-04-23T08:47:51.835Z,115
2018-04-23T08:48:32.357Z,110
2018-04-23T08:49:12.923Z,110
2018-04-23T08:49:53.441Z,110
2018-04-23T08:50:33.952Z,105
2018-04-23T08:51:14.537Z,105
2018-04-23T08:51:55.025Z,110
2018-04-23T08:52:35.696Z,115
2018-04-23T08:53:16.171Z,120
2018-04-23T08:53:56.693Z,125
2018-04-23T08:54:37.322Z,135
2018-04-23T08:55:17.828Z,140
2018-04-23T08:55:58.386Z,150
2018-04-23T08:56:38.899Z,155
2018-04-23T08:57:19.433Z,160
2018-04-23T08:57:59.979Z,170
2018-04-23T08:58:40.494Z,180
2018-04-23T08:59:21.015Z,185
2018-04-23T09:00:01.590Z,185
2018-04-23T09:00:42.063Z,185
2018-04-23T09:01:22.567Z,185
2018-04-23T09:02:03.099Z,175
2018-04-23T09:02:43.616Z,165
2018-04-23T09:03:24.140Z,155
2018-04-23T09:04:04.668Z,145
2018-04-23T09:04:45.211Z,135
2018-04-23T09:05:25.732Z,120
2018-04-23T09:06:06.257Z,115
2018-04-23T09:06:46.824Z,105
2018-04-23T09:07:27.334Z,105
2018-04-23T09:08:07.860Z,100
2018-04-23T09:08:48.369Z,95
2018-04-23T09:09:28.889Z,90
2018-04-23T09:10:09.411Z,90
2018-04-23T09:10:49.931Z,90
2018-04-23T09:11:30.460Z,85
2018-04-23T09:12:10.972Z,90
2018-04-23T09:12:51.496Z,90
2018-04-23T09:13:32.027Z,95
2018-04-23T09:14:12.545Z,100
2018-04-23T09:14:53.094Z,105
2018-04-23T09:15:33.583Z,110
2018-04-23T09:16:14.099Z,115
2018-04-23T09:16:54.639Z,120
2018-04-23T09:17:35.166Z,125
2018-04-23T09:18:15.708Z,125
2018-04-23T09:18:56.237Z,125
2018-04-23T09:19:36.769Z,130
2018-04-23T09:20:17.269Z,130
2018-04-23T09:20:57.773Z,135
2018-04-23T09:21:38.359Z,145
2018-04-23T09:22:18.872Z,150
2018-04-23T09:22:59.374Z,155
2018-04-23T09:23:39.896Z,165
2018-04-23T09:24:20.411Z,175
2018-04-23T09:25:00.913Z,180
2018-04-23T09:25:41.435Z,185
2018-04-23T09:26:21.958Z,185
2018-04-23T09:27:02.492Z,190
2018-04-23T09:27:43.016Z,190
2018-04-23T09:28:23.528Z,195
2018-04-23T09:29:04.049Z,200
2018-04-23T09:29:44.577Z,205
2018-04-23T09:30:25.080Z,210
2018-04-23T09:31:05.611Z,215
2018-04-23T09:31:46.139Z,225
2018-04-23T09:32:26.662Z,230
2018-04-23T09:33:07.170Z,235
2018-04-23T09:33:47.699Z,245
2018-04-23T09:34:28.223Z,245
2018-04-23T09:35:08.721Z,250
2018-04-23T09:35:49.235Z,250
2018-04-23T09:36:29.777Z,250
2018-04-23T09:37:10.300Z,250
2018-04-23T09:37:50.833Z,250
2018-04-23T09:38:31.346Z,250
2018-04-23T09:39:11.857Z,250
2018-04-23T09:39:52.392Z,250
2018-04-23T09:40:32.904Z,255
2018-04-23T09:41:13.428Z,255
2018-04-23T09:41:53.945Z,260
2018-04-23T09:42:34.458Z,255
2018-04-23T09:43:15.019Z,255
2018-04-23T09:43:55.550Z,255
2018-04-23T09:44:36.156Z,260
2018-04-23T09:45:16.613Z,265
2018-04-23T09:45:57.134Z,265
2018-04-23T09:46:37.663Z,270